createdAt,value
2019-03-01T00:02:47.461Z,3.77
2019-03-01T00:07:01.023Z,4.53
2019-03-01T00:11:14.675Z,3.90
2019-03-01T00:15:25.417Z,3.13
2019-03-01T00:19:45.263Z,2.83
2019-03-01T00:23:59.177Z,2.27
2019-03-01T00:28:29.983Z,2.60
2019-03-01T00:32:49.974Z,2.87
2019-03-01T00:37:17.449Z,2.77
2019-03-01T00:41:28.278Z,2.07
2019-03-01T00:45:33.169Z,2.47
2019-03-01T00:49:38.135Z,2.40
2019-03-01T00:53:43.039Z,2.30
2019-03-01T00:57:47.939Z,2.37
2019-03-01T01:01:52.834Z,2.20
2019-03-01T01:05:57.721Z,2.70
2019-03-01T01:10:02.617Z,2.90
2019-03-01T01:14:08.589Z,2.30
2019-03-01T01:18:13.505Z,3.90
2019-03-01T01:22:18.405Z,3.10
2019-03-01T01:26:23.286Z,3.27
2019-03-01T01:30:28.215Z,2.87
2019-03-01T01:34:33.078Z,3.83
2019-03-01T01:38:37.990Z,3.30
2019-03-01T01:42:42.878Z,3.80
2019-03-01T01:46:47.759Z,3.43
2019-03-01T01:50:52.648Z,3.77
2019-03-01T01:54:57.540Z,3.07
2019-03-01T01:59:02.425Z,3.27
2019-03-01T02:03:07.392Z,3.47
2019-03-01T02:07:12.271Z,3.53
2019-03-01T02:11:17.833Z,3.13
2019-03-01T02:15:22.726Z,2.57
2019-03-01T02:19:28.587Z,2.40
2019-03-01T02:23:33.475Z,2.30
2019-03-01T02:27:38.359Z,2.57
2019-03-01T02:31:46.438Z,2.93
2019-03-01T02:35:51.405Z,2.43
2019-03-01T02:39:56.286Z,2.40
2019-03-01T02:44:01.176Z,2.80
2019-03-01T02:48:06.074Z,2.57
2019-03-01T02:52:10.974Z,2.20
2019-03-01T02:56:15.875Z,2.73
2019-03-01T03:00:23.807Z,2.50
2019-03-01T03:04:28.702Z,2.73
2019-03-01T03:08:33.998Z,2.47
2019-03-01T03:12:38.897Z,2.30
2019-03-01T03:16:43.808Z,2.60
2019-03-01T03:20:48.709Z,2.40
2019-03-01T03:24:53.606Z,2.93
2019-03-01T03:28:58.482Z,2.80
2019-03-01T03:33:04.423Z,2.90
2019-03-01T03:37:09.326Z,2.57
2019-03-01T03:41:14.206Z,2.40
2019-03-01T03:45:19.270Z,2.37
2019-03-01T03:49:24.150Z,2.07
2019-03-01T03:53:29.041Z,1.90
2019-03-01T03:57:33.938Z,2.30
2019-03-01T04:01:38.827Z,2.07
2019-03-01T04:05:43.737Z,2.20
2019-03-01T04:09:48.611Z,2.30
2019-03-01T04:13:53.501Z,2.37
2019-03-01T04:17:58.393Z,1.90
2019-03-01T04:22:03.288Z,2.13
2019-03-01T04:26:08.176Z,2.07
2019-03-01T04:30:17.661Z,1.70
2019-03-01T04:34:22.570Z,1.40
2019-03-01T04:38:27.440Z,2.83
2019-03-01T04:42:32.328Z,1.87
2019-03-01T04:46:37.219Z,1.90
2019-03-01T04:50:42.096Z,2.10
2019-03-01T04:54:46.988Z,1.90
2019-03-01T04:58:51.877Z,2.27
2019-03-01T05:02:56.771Z,2.03
2019-03-01T05:07:01.655Z,2.40
2019-03-01T05:11:06.535Z,2.07
2019-03-01T05:15:20.296Z,2.07
2019-03-01T05:19:25.187Z,2.10
2019-03-01T05:23:30.079Z,2.03
2019-03-01T05:27:34.975Z,1.93
2019-03-01T05:31:39.848Z,1.80
2019-03-01T05:35:44.741Z,1.60
2019-03-01T05:39:49.648Z,1.57
2019-03-01T05:43:54.540Z,1.53
2019-03-01T05:47:59.434Z,1.77
2019-03-01T05:52:04.321Z,2.27
2019-03-01T05:56:09.208Z,1.97
2019-03-01T06:00:14.109Z,1.93
2019-03-01T06:04:24.550Z,1.90
2019-03-01T06:08:47.563Z,1.63
2019-03-01T06:13:04.055Z,1.83
2019-03-01T06:17:43.652Z,2.20
2019-03-01T06:21:57.367Z,2.10
2019-03-01T06:26:26.411Z,2.30
2019-03-01T06:30:55.024Z,1.77
2019-03-01T06:35:08.279Z,1.70
2019-03-01T06:39:36.918Z,1.50
2019-03-01T06:43:56.548Z,1.47
2019-03-01T06:48:01.443Z,1.40
2019-03-01T06:52:06.326Z,1.33
2019-03-01T06:56:11.390Z,1.60
2019-03-01T07:00:16.292Z,2.00
2019-03-01T07:04:21.167Z,1.80
2019-03-01T07:08:26.065Z,1.63
2019-03-01T07:12:30.961Z,1.90
2019-03-01T07:16:36.124Z,1.60
2019-03-01T07:20:41.023Z,1.93
2019-03-01T07:24:45.913Z,2.37
2019-03-01T07:28:50.807Z,2.07
2019-03-01T07:32:55.724Z,2.40
2019-03-01T07:37:00.629Z,1.87
2019-03-01T07:41:05.533Z,1.83
2019-03-01T07:45:12.802Z,2.60
2019-03-01T07:49:17.701Z,2.67
2019-03-01T07:53:22.609Z,2.50
2019-03-01T07:57:28.477Z,2.40
2019-03-01T08:01:33.382Z,2.00
2019-03-01T08:05:39.370Z,1.70
2019-03-01T08:09:45.698Z,2.20
2019-03-01T08:13:53.123Z,2.00
2019-03-01T08:17:57.241Z,1.60
2019-03-01T08:22:02.211Z,1.70
2019-03-01T08:26:07.104Z,1.30
2019-03-01T08:30:14.445Z,1.67
2019-03-01T08:34:20.413Z,1.00
2019-03-01T08:38:28.492Z,1.90
2019-03-01T08:42:32.629Z,2.10
2019-03-01T08:46:42.120Z,2.03
2019-03-01T08:50:45.137Z,2.23
2019-03-01T08:54:50.173Z,2.97
2019-03-01T08:58:55.037Z,1.80
2019-03-01T09:03:03.801Z,1.70
2019-03-01T09:07:08.697Z,2.40
2019-03-01T09:11:14.672Z,1.63
2019-03-01T09:15:19.564Z,1.60
2019-03-01T09:19:25.240Z,2.13
2019-03-01T09:23:31.047Z,7.23
2019-03-01T09:27:35.957Z,15.87
2019-03-01T09:31:40.860Z,3.60
2019-03-01T09:35:56.714Z,3.63
2019-03-01T09:40:05.425Z,3.90
2019-03-01T09:44:08.299Z,4.37
2019-03-01T09:48:13.225Z,5.10
2019-03-01T09:52:20.395Z,6.43
2019-03-01T09:56:24.735Z,4.93
2019-03-01T10:00:34.361Z,5.40
2019-03-01T10:04:39.266Z,4.40
2019-03-01T10:08:44.172Z,3.83
2019-03-01T10:12:50.166Z,3.87
2019-03-01T10:16:55.068Z,3.53
2019-03-01T10:20:59.978Z,3.53
2019-03-01T10:25:07.515Z,3.50
2019-03-01T10:29:12.441Z,3.50
2019-03-01T10:33:17.323Z,3.20
2019-03-01T10:37:22.223Z,3.73
2019-03-01T10:41:27.125Z,3.37
2019-03-01T10:45:32.396Z,3.30
2019-03-01T10:49:37.295Z,3.63
2019-03-01T10:53:42.215Z,3.83
2019-03-01T10:57:47.245Z,3.87
2019-03-01T11:01:53.119Z,3.50
2019-03-01T11:05:58.032Z,3.60
2019-03-01T11:10:03.595Z,3.80
2019-03-01T11:14:08.494Z,3.30
2019-03-01T11:18:13.399Z,4.73
2019-03-01T11:22:18.314Z,4.40
2019-03-01T11:26:23.216Z,4.57
2019-03-01T11:30:30.816Z,5.37
2019-03-01T11:34:36.323Z,4.73
2019-03-01T11:38:41.202Z,4.97
2019-03-01T11:42:46.125Z,5.07
2019-03-01T11:46:51.026Z,5.20
2019-03-01T11:50:55.931Z,7.40
2019-03-01T11:55:00.843Z,7.67
2019-03-01T11:59:05.741Z,7.47
2019-03-01T12:03:10.654Z,8.40
2019-03-01T12:07:15.558Z,7.77
2019-03-01T12:11:20.468Z,8.83
2019-03-01T12:15:25.380Z,10.03
2019-03-01T12:19:30.292Z,11.27
2019-03-01T12:23:35.204Z,15.10
2019-03-01T12:27:40.166Z,15.77
2019-03-01T12:31:45.033Z,16.33
2019-03-01T12:35:49.940Z,19.10
2019-03-01T12:39:54.856Z,21.13
2019-03-01T12:43:59.772Z,24.93
2019-03-01T12:48:04.683Z,27.30
2019-03-01T12:52:09.588Z,30.80
2019-03-01T12:56:15.471Z,29.90
2019-03-01T13:00:26.054Z,32.73
2019-03-01T13:04:30.971Z,34.50
2019-03-01T13:08:36.200Z,34.23
2019-03-01T13:12:41.103Z,37.10
2019-03-01T13:16:46.052Z,36.50
2019-03-01T13:20:50.952Z,36.63
2019-03-01T13:24:55.876Z,37.40
2019-03-01T13:29:00.810Z,36.17
2019-03-01T13:33:05.715Z,36.93
2019-03-01T13:37:14.430Z,38.63
2019-03-01T13:41:17.263Z,39.20
2019-03-01T13:45:26.079Z,40.60
2019-03-01T13:49:31.378Z,38.63
2019-03-01T13:53:37.271Z,38.60
2019-03-01T13:57:42.269Z,39.00
2019-03-01T14:01:47.790Z,38.47
2019-03-01T14:05:54.847Z,39.97
2019-03-01T14:10:00.820Z,36.03
2019-03-01T14:14:07.478Z,35.13
2019-03-01T14:18:12.384Z,33.17
2019-03-01T14:22:17.286Z,33.23
2019-03-01T14:26:23.268Z,32.87
2019-03-01T14:30:30.026Z,31.13
2019-03-01T14:34:35.991Z,31.57
2019-03-01T14:38:40.973Z,28.10
2019-03-01T14:42:47.565Z,30.63
2019-03-01T14:46:52.924Z,26.10
2019-03-01T14:50:59.206Z,24.40
2019-03-01T14:55:05.580Z,25.83
2019-03-01T14:59:19.739Z,25.87
2019-03-01T15:03:33.042Z,25.83
2019-03-01T15:07:37.943Z,24.30
2019-03-01T15:11:44.338Z,24.03
2019-03-01T15:15:49.530Z,23.57
2019-03-01T15:19:55.516Z,24.47
2019-03-01T15:24:01.454Z,25.33
2019-03-01T15:28:06.518Z,23.23
2019-03-01T15:32:12.534Z,25.50
2019-03-01T15:36:18.969Z,25.77
2019-03-01T15:40:24.113Z,24.23
2019-03-01T15:44:29.022Z,27.03
2019-03-01T15:48:34.409Z,23.80
2019-03-01T15:52:40.527Z,25.30
2019-03-01T15:56:45.438Z,25.57
2019-03-01T16:00:50.332Z,24.80
2019-03-01T16:04:55.245Z,25.03
2019-03-01T16:09:00.157Z,25.13
2019-03-01T16:13:08.416Z,25.53
2019-03-01T16:17:11.668Z,25.73
2019-03-01T16:21:16.567Z,27.63
2019-03-01T16:25:21.626Z,25.00
2019-03-01T16:29:26.455Z,26.73
2019-03-01T16:33:31.370Z,26.50
2019-03-01T16:37:37.714Z,26.87
2019-03-01T16:41:43.687Z,26.97
2019-03-01T16:45:48.806Z,25.07
2019-03-01T16:49:53.717Z,24.70
2019-03-01T16:53:58.622Z,25.10
2019-03-01T16:58:07.359Z,21.80
2019-03-01T17:02:11.204Z,21.73
2019-03-01T17:06:16.101Z,23.77
2019-03-01T17:10:22.544Z,20.90
2019-03-01T17:14:27.469Z,22.23
2019-03-01T17:18:33.346Z,18.30
2019-03-01T17:22:38.237Z,18.27
2019-03-01T17:26:43.142Z,17.70
2019-03-01T17:30:50.836Z,18.57
2019-03-01T17:34:54.654Z,19.30
2019-03-01T17:38:59.585Z,18.70
2019-03-01T17:43:04.486Z,19.80
2019-03-01T17:47:10.686Z,18.70
2019-03-01T17:51:18.280Z,18.77
2019-03-01T17:55:24.450Z,19.83
2019-03-01T17:59:29.343Z,18.73
2019-03-01T18:03:34.238Z,18.10
2019-03-01T18:07:39.204Z,17.67
2019-03-01T18:11:44.539Z,16.20
2019-03-01T18:15:50.304Z,17.33
2019-03-01T18:19:55.210Z,16.40
2019-03-01T18:24:00.104Z,14.17
2019-03-01T18:28:05.025Z,14.00
2019-03-01T18:32:10.886Z,12.73
2019-03-01T18:36:15.907Z,10.63
2019-03-01T18:40:20.800Z,10.90
2019-03-01T18:44:26.109Z,10.40
2019-03-01T18:48:33.554Z,8.87
2019-03-01T18:52:38.661Z,11.03
2019-03-01T18:56:43.556Z,9.37
2019-03-01T19:00:50.956Z,10.07
2019-03-01T19:04:56.161Z,10.10
2019-03-01T19:09:01.058Z,9.87
2019-03-01T19:13:07.567Z,9.87
2019-03-01T19:17:12.462Z,9.83
2019-03-01T19:21:18.210Z,11.13
2019-03-01T19:25:25.290Z,12.83
2019-03-01T19:29:29.842Z,13.67
2019-03-01T19:33:37.754Z,17.47
2019-03-01T19:37:41.353Z,17.57
2019-03-01T19:41:46.263Z,14.93
2019-03-01T19:45:51.154Z,16.20
2019-03-01T19:49:56.065Z,16.30
2019-03-01T19:54:02.051Z,17.10
2019-03-01T19:58:08.808Z,15.93
2019-03-01T20:02:14.210Z,16.77
2019-03-01T20:06:19.114Z,15.93
2019-03-01T20:10:24.487Z,14.30
2019-03-01T20:14:30.324Z,14.90
2019-03-01T20:18:36.005Z,14.87
2019-03-01T20:22:40.905Z,14.03
2019-03-01T20:26:45.799Z,15.57
2019-03-01T20:30:50.700Z,16.47
2019-03-01T20:34:55.609Z,16.10
2019-03-01T20:39:00.516Z,15.53
2019-03-01T20:43:07.253Z,16.07
2019-03-01T20:47:12.089Z,19.13
2019-03-01T20:51:16.994Z,16.60
2019-03-01T20:55:23.849Z,17.10
2019-03-01T20:59:28.573Z,16.73
2019-03-01T21:03:33.487Z,17.23
2019-03-01T21:07:38.751Z,17.33
2019-03-01T21:11:43.656Z,18.43
2019-03-01T21:15:48.560Z,18.23
2019-03-01T21:19:53.461Z,17.17
2019-03-01T21:23:58.378Z,18.00
2019-03-01T21:28:03.266Z,17.33
2019-03-01T21:32:08.186Z,18.50
2019-03-01T21:36:13.106Z,18.33
2019-03-01T21:40:18.010Z,18.73
2019-03-01T21:44:22.920Z,18.83
2019-03-01T21:48:27.838Z,19.87
2019-03-01T21:52:33.821Z,19.07
2019-03-01T21:56:41.038Z,19.70
2019-03-01T22:00:45.345Z,18.97
2019-03-01T22:04:50.269Z,20.63
2019-03-01T22:08:55.165Z,20.20
2019-03-01T22:13:00.515Z,20.37
2019-03-01T22:17:06.262Z,21.87
2019-03-01T22:21:11.164Z,22.40
2019-03-01T22:25:16.242Z,22.30
2019-03-01T22:29:21.129Z,20.57
2019-03-01T22:33:26.037Z,21.17
2019-03-01T22:37:30.945Z,20.67
2019-03-01T22:41:39.345Z,20.17
2019-03-01T22:45:45.489Z,23.07
2019-03-01T22:49:49.037Z,20.70
2019-03-01T22:53:53.949Z,21.37
2019-03-01T22:58:00.881Z,22.70
2019-03-01T23:02:08.206Z,21.43
2019-03-01T23:06:14.648Z,21.27
2019-03-01T23:10:21.541Z,22.53
2019-03-01T23:14:27.320Z,22.50
2019-03-01T23:18:33.105Z,20.20
2019-03-01T23:22:38.014Z,22.70
2019-03-01T23:26:42.940Z,20.20
2019-03-01T23:30:47.841Z,20.53
2019-03-01T23:34:52.747Z,19.27
2019-03-01T23:38:57.652Z,20.90
2019-03-01T23:43:02.562Z,21.13
2019-03-01T23:47:07.477Z,20.73
2019-03-01T23:51:12.372Z,18.83
2019-03-01T23:55:18.981Z,18.40
2019-03-01T23:59:26.654Z,18.67
